< Typhoon 195722 1958 Season Typhoon 195802 >
Typhoon 195801 (OPHELIA)
General InformationTrack Information on Google Maps || Disaster Info.ResourceGoogle EarthGE AnimationAtom FeedGeoJSON
Detalied Best Track (Time Zone = UTC)
Year Month Day Hour Lat. Long. Pressure (hPa) Wind (kt) Class Image Chart
1958 1 6 18 3.1 170.9 1002 0 2 -- Chart
1958 1 7 00 4.1 170.8 1000 0 2 -- Chart
1958 1 7 06 4.8 170.2 995 0 2 -- Chart
1958 1 7 12 5.3 169.3 990 0 9 -- Chart
1958 1 7 18 5.8 168.2 980 0 9 -- Chart
1958 1 8 00 6.2 167.1 960 0 9 -- Chart
1958 1 8 06 6.6 165.9 940 0 9 -- Chart
1958 1 8 12 7.0 164.8 945 0 9 -- Chart
1958 1 8 18 7.3 163.7 950 0 9 -- Chart
1958 1 9 00 7.5 162.6 955 0 9 -- Chart
1958 1 9 06 7.6 161.5 960 0 9 -- Chart
1958 1 9 12 7.5 160.2 960 0 9 -- Chart
1958 1 9 18 7.4 158.9 960 0 9 -- Chart
1958 1 10 00 7.2 157.5 965 0 9 -- Chart
1958 1 10 06 7.7 156.1 970 0 9 -- Chart
1958 1 10 12 8.2 154.8 970 0 9 -- Chart
1958 1 10 18 8.5 153.5 975 0 9 -- Chart
1958 1 11 00 8.2 152.2 980 0 9 -- Chart
1958 1 11 06 7.9 151.0 980 0 9 -- Chart
1958 1 11 12 7.9 149.6 980 0 9 -- Chart
1958 1 11 18 8.0 148.2 985 0 9 -- Chart
1958 1 12 00 8.1 146.9 980 0 9 -- Chart
1958 1 12 06 8.1 145.6 975 0 9 -- Chart
1958 1 12 12 8.2 144.3 970 0 9 -- Chart
1958 1 12 18 8.6 142.9 960 0 9 -- Chart
1958 1 13 00 9.0 141.6 955 0 9 -- Chart
1958 1 13 06 9.3 140.4 950 0 9 -- Chart
1958 1 13 12 9.6 139.2 945 0 9 -- Chart
1958 1 13 18 10.0 138.0 940 0 9 -- Chart
1958 1 14 00 10.3 137.2 940 0 9 -- Chart
1958 1 14 06 10.8 136.5 940 0 9 -- Chart
1958 1 14 12 11.2 135.9 940 0 9 -- Chart
1958 1 14 18 11.6 135.5 945 0 9 -- Chart
1958 1 15 00 12.0 135.2 950 0 9 -- Chart
1958 1 15 06 12.3 135.1 960 0 9 -- Chart
1958 1 15 12 12.5 135.1 960 0 9 -- Chart
1958 1 15 18 12.7 135.0 970 0 9 -- Chart
1958 1 16 00 12.8 135.0 980 0 9 -- Chart
1958 1 16 06 12.9 135.2 990 0 9 -- Chart
1958 1 16 12 12.6 134.2 990 0 9 -- Chart
1958 1 16 18 13.2 133.2 990 0 9 -- Chart
1958 1 17 00 14.1 133.1 990 0 9 -- Chart
1958 1 17 06 15.0 133.1 1000 0 9 -- Chart
1958 1 17 12 16.0 133.4 1010 0 2 -- Chart
Japan Meteorological Agency Best Track Data | Correction Date : 1989-06-01
< Typhoon 195722 1958 Season Typhoon 195802 >

Help